playcanvas.com alexa rank chart, playcanvas.com alexa rank daily changes

playcanvas.com alexa rank chart, playcanvas.com alexa rank daily changes

playcanvas.com
Actual rank:
121 964

RANK HISTORY

Date Rank Diff
2017/04/27 121 964 -429
2017/04/26 122 393 -621
2017/04/25 123 014 -516
2017/04/24 123 530 -2 983
2017/04/23 126 513 +1 788
2017/04/22 124 725 +2 971
2017/04/21 121 754 +4 660
2017/04/20 117 094 +1 787
2017/04/19 115 307 +4 013
2017/04/18 111 294 -1 631
2017/04/17 112 925 +197
2017/04/16 112 728 -340
2017/04/15 113 068 +181
2017/04/14 112 887 -1 632
2017/04/13 114 519 -129
2017/04/12 114 648 +3 455
2017/04/11 111 193 -1 339
2017/04/10 112 532 -398
2017/04/09 112 930 -827
2017/04/08 113 757 -738
2017/04/07 114 495 -813
2017/04/06 115 308 +445
2017/04/05 114 863 +1 587
2017/04/04 113 276 +976
2017/04/03 112 300 -184
2017/04/02 112 484 +310
2017/04/01 112 174 +858
2017/03/31 111 316 +897
2017/03/30 110 419 +1 169
2017/03/29 109 250 +3 154
2017/03/28 106 096 -1 803
2017/03/27 107 899 +740
2017/03/26 107 159 +759
2017/03/25 106 400 -2 173
2017/03/24 108 573 +117
2017/03/23 108 456 -1 006
2017/03/22 109 462 +1 204
2017/03/21 108 258 -2 663
2017/03/20 110 921 +2 229
2017/03/19 108 692 -1 323
2017/03/18 110 015 +124
2017/03/17 109 891 -2 183
2017/03/16 112 074 +2 678
2017/03/15 109 396 +307
2017/03/14 109 089 -248
2017/03/13 109 337 +55
2017/03/12 109 282 -3 528
2017/03/11 112 810 +2 385
2017/03/10 110 425 +2 360
2017/03/09 108 065 +1 078
2017/03/08 106 987 +2 919
2017/03/07 104 068 +1 157
2017/03/06 102 911 +162
2017/03/01 102 749 -3 534
2017/02/28 106 283 +2 113
2017/02/27 104 170 +930
2017/02/26 103 240

WIDGET FOR YOUR SITE

DOMAINS WITH THE NEAREST RANK

Domain Rank
samara-papa.ru 121 959
templates4share.com 121 960
stepashka.com 121 961
fotopazar.com 121 962
sidrichchhour38014635.wordpress.com 121 963
playcanvas.com 121 964
ccleanercloud.com 121 965
hkinventory.com 121 966
nativeads.com 121 967
highlandwoodworking.com 121 968
patriotledger.com 121 969

DOMAINS WITH THE NEAREST RANK BY TLD .com

Domain Rank
merchinformer.com 121 953
phanmemaz.com 121 954
templates4share.com 121 960
stepashka.com 121 961
fotopazar.com 121 962
playcanvas.com 121 964
ccleanercloud.com 121 965
hkinventory.com 121 966
nativeads.com 121 967
highlandwoodworking.com 121 968
patriotledger.com 121 969